createdAt,value
2019-06-26T00:05:27.798Z,1022
2019-06-26T00:11:08.469Z,1022
2019-06-26T00:16:41.647Z,1022
2019-06-26T00:22:13.670Z,1022
2019-06-26T00:27:45.084Z,1022
2019-06-26T00:33:26.084Z,1022
2019-06-26T00:38:59.670Z,1022.1
2019-06-26T00:44:32.621Z,1022.1
2019-06-26T00:50:11.451Z,1022.1
2019-06-26T00:55:39.671Z,1022.1
2019-06-26T01:01:18.161Z,1022.2
2019-06-26T01:06:48.086Z,1022.3
2019-06-26T01:12:15.673Z,1022.2
2019-06-26T01:17:55.032Z,1022.2
2019-06-26T01:23:32.513Z,1022.2
2019-06-26T01:29:08.751Z,1022.3
2019-06-26T01:34:36.528Z,1022.2
2019-06-26T01:40:11.736Z,1022.2
2019-06-26T01:45:50.958Z,1022.1
2019-06-26T01:51:27.328Z,1022.2
2019-06-26T01:56:58.828Z,1022.2
2019-06-26T02:02:35.374Z,1022.2
2019-06-26T02:07:57.856Z,1022.1
2019-06-26T02:13:40.931Z,1022.3
2019-06-26T02:19:11.273Z,1022.4
2019-06-26T02:24:49.258Z,1022.5
2019-06-26T02:30:21.652Z,1022.5
2019-06-26T02:35:56.212Z,1022.4
2019-06-26T02:41:21.371Z,1022.4
2019-06-26T02:47:17.994Z,1022.4
2019-06-26T02:52:37.298Z,1022.5
2019-06-26T02:58:11.305Z,1022.5
2019-06-26T03:03:46.160Z,1022.5
2019-06-26T03:09:17.039Z,1022.5
2019-06-26T03:14:45.570Z,1022.6
2019-06-26T03:20:24.280Z,1022.6
2019-06-26T03:26:01.306Z,1022.7
2019-06-26T03:31:34.037Z,1022.7
2019-06-26T03:37:12.232Z,1022.7
2019-06-26T03:42:38.360Z,1022.8
2019-06-26T03:48:17.099Z,1022.7
2019-06-26T03:53:55.282Z,1022.7
2019-06-26T03:59:21.018Z,1022.7
2019-06-26T04:04:54.242Z,1022.7
2019-06-26T04:10:31.881Z,1022.7
2019-06-26T04:16:10.445Z,1022.6
2019-06-26T04:21:42.423Z,1022.6
2019-06-26T04:27:17.603Z,1022.4
2019-06-26T04:32:41.647Z,1022.4
2019-06-26T04:38:25.939Z,1022.5
2019-06-26T04:43:54.188Z,1022.5
2019-06-26T04:49:35.360Z,1022.5
2019-06-26T04:55:01.834Z,1022.5
2019-06-26T05:00:44.111Z,1022.5
2019-06-26T05:06:17.935Z,1022.5
2019-06-26T05:11:41.171Z,1022.5
2019-06-26T05:17:18.007Z,1022.6
2019-06-26T05:22:58.725Z,1022.6
2019-06-26T05:28:35.394Z,1022.5
2019-06-26T05:34:11.707Z,1022.4
2019-06-26T05:39:46.674Z,1022.5
2019-06-26T05:45:15.064Z,1022.5
2019-06-26T05:50:47.403Z,1022.5
2019-06-26T05:56:26.803Z,1022.5
2019-06-26T06:01:53.670Z,1022.4
2019-06-26T06:07:29.942Z,1022.5
2019-06-26T06:13:11.426Z,1022.3
2019-06-26T06:18:40.370Z,1022.4
2019-06-26T06:24:27.590Z,1022.3
2019-06-26T06:29:52.736Z,1022.2
2019-06-26T06:35:30.206Z,1022.1
2019-06-26T06:41:08.024Z,1022.1
2019-06-26T06:46:43.061Z,1022.2
2019-06-26T06:52:16.692Z,1022.2
2019-06-26T06:57:48.396Z,1022.2
2019-06-26T07:03:23.622Z,1022.2
2019-06-26T07:08:58.898Z,1022
2019-06-26T07:14:35.903Z,1022.1
2019-06-26T07:20:16.855Z,1022
2019-06-26T07:25:53.544Z,1022.1
2019-06-26T07:31:30.897Z,1022
2019-06-26T07:37:00.832Z,1022.2
2019-06-26T07:42:37.973Z,1022.2
2019-06-26T07:48:16.417Z,1022
2019-06-26T07:53:50.065Z,1022.2
2019-06-26T07:59:30.957Z,1021.9
2019-06-26T08:05:07.970Z,1022.2
2019-06-26T08:10:44.549Z,1022.1
2019-06-26T08:16:20.704Z,1021.9
2019-06-26T08:22:03.250Z,1021.9
2019-06-26T08:27:37.554Z,1021.7
2019-06-26T08:33:17.908Z,1021.7
2019-06-26T08:38:54.417Z,1021.7
2019-06-26T08:44:24.621Z,1021.7
2019-06-26T08:55:49.963Z,1021.7
2019-06-26T09:01:24.802Z,1021.7
2019-06-26T09:06:55.767Z,1021.6
2019-06-26T09:12:44.830Z,1021.7
2019-06-26T09:18:34.666Z,1021.5
2019-06-26T09:23:58.332Z,1021.5
2019-06-26T09:29:35.799Z,1021.5
2019-06-26T09:35:08.816Z,1021.6
2019-06-26T09:40:46.466Z,1021.5
2019-06-26T09:46:30.716Z,1021.4
2019-06-26T09:52:08.771Z,1021.4
2019-06-26T09:57:35.599Z,1021.4
2019-06-26T10:03:20.930Z,1021.3
2019-06-26T10:14:46.915Z,1021.4
2019-06-26T10:20:20.239Z,1021.4
2019-06-26T10:25:57.507Z,1021.4
2019-06-26T10:31:27.108Z,1021.2
2019-06-26T10:37:04.803Z,1021.2
2019-06-26T10:42:41.346Z,1021.2
2019-06-26T10:48:26.396Z,1021.1
2019-06-26T10:54:04.454Z,1021.2
2019-06-26T10:59:43.797Z,1020.9
2019-06-26T11:05:26.782Z,1021
2019-06-26T11:11:04.498Z,1020.9
2019-06-26T11:16:37.074Z,1020.8
2019-06-26T11:22:19.976Z,1020.7
2019-06-26T11:27:46.523Z,1020.8
2019-06-26T11:33:32.570Z,1020.7
2019-06-26T11:39:12.887Z,1020.7
2019-06-26T11:44:40.868Z,1020.6
2019-06-26T11:50:30.117Z,1020.5
2019-06-26T11:56:05.909Z,1020.5
2019-06-26T12:01:47.585Z,1020.5
2019-06-26T12:07:25.637Z,1020.3
2019-06-26T12:18:38.900Z,1020.4
2019-06-26T12:24:17.307Z,1020
2019-06-26T12:29:48.294Z,1020
2019-06-26T12:35:32.203Z,1020.2
2019-06-26T12:41:05.765Z,1020.1
2019-06-26T12:46:40.511Z,1020
2019-06-26T12:52:31.664Z,1019.7
2019-06-26T12:58:13.753Z,1019.7
2019-06-26T13:03:49.328Z,1019.7
2019-06-26T13:09:15.097Z,1019.7
2019-06-26T13:14:57.742Z,1019.7
2019-06-26T13:20:51.488Z,1019.5
2019-06-26T13:26:24.262Z,1019.7
2019-06-26T13:32:00.982Z,1019.7
2019-06-26T13:37:29.785Z,1019.5
2019-06-26T13:43:15.663Z,1019.5
2019-06-26T13:48:54.226Z,1019.5
2019-06-26T13:54:36.592Z,1019.6
2019-06-26T14:00:08.844Z,1019.5
2019-06-26T14:05:50.626Z,1019.4
2019-06-26T14:11:29.946Z,1019.5
2019-06-26T14:17:04.659Z,1019.3
2019-06-26T14:22:43.010Z,1019.3
2019-06-26T14:28:24.577Z,1019.3
2019-06-26T14:34:03.957Z,1019.1
2019-06-26T14:39:46.545Z,1019
2019-06-26T14:45:20.587Z,1018.9
2019-06-26T14:50:54.235Z,1019
2019-06-26T14:56:41.501Z,1018.9
2019-06-26T15:02:16.936Z,1018.8
2019-06-26T15:07:54.642Z,1018.8
2019-06-26T15:13:37.669Z,1019
2019-06-26T15:19:14.637Z,1018.8
2019-06-26T15:25:01.737Z,1018.6
2019-06-26T15:30:39.377Z,1018.6
2019-06-26T15:36:17.420Z,1018.7
2019-06-26T15:41:50.433Z,1018.6
2019-06-26T15:47:34.670Z,1018.6
2019-06-26T15:53:12.059Z,1018.6
2019-06-26T15:58:48.260Z,1018.6
2019-06-26T16:04:36.687Z,1018.6
2019-06-26T16:15:54.173Z,1018.4
2019-06-26T16:21:29.313Z,1018.5
2019-06-26T16:27:04.218Z,1018.4
2019-06-26T16:32:44.401Z,1018.4
2019-06-26T16:38:23.143Z,1018.5
2019-06-26T16:44:04.114Z,1018.5
2019-06-26T16:49:36.356Z,1018.7
2019-06-26T16:55:14.501Z,1018.7
2019-06-26T17:00:59.531Z,1018.7
2019-06-26T17:06:40.996Z,1018.8
2019-06-26T17:12:19.700Z,1018.8
2019-06-26T17:17:56.908Z,1018.7
2019-06-26T17:23:34.222Z,1018.8
2019-06-26T17:29:08.224Z,1018.9
2019-06-26T17:34:42.927Z,1019
2019-06-26T17:40:20.758Z,1019.1
2019-06-26T17:46:01.564Z,1019.1
2019-06-26T17:51:32.246Z,1019.2
2019-06-26T17:57:13.062Z,1019.2
2019-06-26T18:02:50.189Z,1019.3
2019-06-26T18:08:28.936Z,1019.4
2019-06-26T18:14:03.947Z,1019.5
2019-06-26T18:19:40.247Z,1019.5
2019-06-26T18:25:16.628Z,1019.5
2019-06-26T18:30:57.979Z,1019.6
2019-06-26T18:36:26.168Z,1019.7
2019-06-26T18:42:05.594Z,1019.8
2019-06-26T18:47:41.714Z,1019.8
2019-06-26T18:53:15.282Z,1020
2019-06-26T18:58:56.236Z,1020
2019-06-26T19:04:33.958Z,1020
2019-06-26T19:15:42.479Z,1020.3
2019-06-26T19:21:21.282Z,1020.3
2019-06-26T19:26:54.171Z,1020.3
2019-06-26T19:32:28.200Z,1020.3
2019-06-26T19:38:01.811Z,1020.4
2019-06-26T19:43:34.755Z,1020.6
2019-06-26T19:49:10.872Z,1020.7
2019-06-26T19:54:50.108Z,1020.8
2019-06-26T20:00:22.584Z,1020.8
2019-06-26T20:05:56.224Z,1020.9
2019-06-26T20:11:33.402Z,1020.9
2019-06-26T20:17:15.709Z,1020.8
2019-06-26T20:22:44.768Z,1020.9
2019-06-26T20:28:23.189Z,1020.9
2019-06-26T20:33:58.827Z,1020.9
2019-06-26T20:39:27.106Z,1021
2019-06-26T20:50:39.449Z,1021
2019-06-26T20:56:18.314Z,1021
2019-06-26T21:01:53.907Z,1021.1
2019-06-26T21:07:35.075Z,1021.1
2019-06-26T21:13:12.967Z,1021.1
2019-06-26T21:18:42.146Z,1021.2
2019-06-26T21:24:16.602Z,1021.1
2019-06-26T21:29:48.591Z,1021.1
2019-06-26T21:35:31.793Z,1021.2
2019-06-26T21:41:00.267Z,1021.3
2019-06-26T21:46:44.491Z,1021.3
2019-06-26T21:52:09.731Z,1021.5
2019-06-26T21:57:55.261Z,1021.5
2019-06-26T22:03:17.002Z,1021.5
2019-06-26T22:09:04.020Z,1021.9
2019-06-26T22:14:34.596Z,1021.9
2019-06-26T22:20:03.265Z,1022
2019-06-26T22:25:50.591Z,1022
2019-06-26T22:31:10.440Z,1022.1
2019-06-26T22:36:52.494Z,1022.2
2019-06-26T22:42:27.489Z,1022.2
2019-06-26T22:48:04.643Z,1022.1
2019-06-26T22:53:35.766Z,1022.1
2019-06-26T22:59:05.726Z,1022.1
2019-06-26T23:04:46.710Z,1022.1
2019-06-26T23:10:22.654Z,1021.8
2019-06-26T23:15:55.360Z,1021.9
2019-06-26T23:21:20.142Z,1021.9
2019-06-26T23:27:03.226Z,1022
2019-06-26T23:32:34.252Z,1021.9
2019-06-26T23:38:08.602Z,1022
2019-06-26T23:43:46.187Z,1022.1
2019-06-26T23:49:17.687Z,1022.1
2019-06-26T23:54:47.614Z,1022.1
